首页
METAR-TAF:

METAR-TAF

机场 :

Regional_Airport

拉斯顿, 路易斯安那州, 美国

纬度: 32-30-52N, 经度: 092-35-18W, 海拔: 95米

当前天气观测

该预报发布于21分钟前的03:15 UTC
静风
温度 23°C
湿度 89%
气压 1014 hPa
能見度: 16.1公里
多云层高于4500英尺
多云层高于5000英尺
多云层高于7000英尺

METAR: KRSN 250315Z AUTO 00000KT 10SM BKN045 BKN050 BKN070 23/21 A2993 RMK AO2 LTG DSNT S THRU W T02330206

时间: 22:36 (03:36 UTC)


TAF: 丢失

超过4000个机场的气象观测和天气预报(METAR&TAF报告)。

可查询的气象台以黄色和红色小点在地图上表示。

将鼠标移到小点上方,可查看气象台名称。

然后点击查看天气观测和预报。

如需切换地图:点击带黑十字的绿色按钮放大地图;点击带横线的绿色按钮缩小地图;或者点击绿色箭头查看邻近地区的地图。


METAR-TAF: